createdAt,value
2017-11-28T00:01:05.123Z,1.20
2017-11-28T00:03:32.796Z,1.17
2017-11-28T00:06:01.407Z,1.20
2017-11-28T00:08:29.075Z,1.35
2017-11-28T00:10:57.027Z,1.20
2017-11-28T00:13:24.667Z,1.20
2017-11-28T00:15:52.314Z,1.20
2017-11-28T00:18:22.945Z,1.10
2017-11-28T00:20:50.702Z,1.27
2017-11-28T00:23:19.612Z,1.15
2017-11-28T00:25:47.299Z,1.10
2017-11-28T00:28:17.621Z,1.20
2017-11-28T00:30:45.325Z,1.30
2017-11-28T00:33:14.764Z,1.15
2017-11-28T00:35:42.355Z,1.00
2017-11-28T00:38:09.996Z,1.20
2017-11-28T00:40:37.591Z,1.00
2017-11-28T00:43:05.202Z,1.10
2017-11-28T00:45:34.438Z,0.98
2017-11-28T00:48:02.162Z,1.10
2017-11-28T00:50:29.853Z,1.25
2017-11-28T00:52:57.535Z,1.30
2017-11-28T00:55:25.142Z,1.30
2017-11-28T00:57:53.651Z,1.20
2017-11-28T01:00:22.097Z,1.40
2017-11-28T01:02:49.819Z,1.20
2017-11-28T01:05:18.192Z,1.05
2017-11-28T01:07:45.920Z,1.23
2017-11-28T01:10:13.618Z,1.10
2017-11-28T01:12:41.293Z,1.12
2017-11-28T01:15:08.944Z,1.30
2017-11-28T01:17:36.786Z,1.00
2017-11-28T01:20:04.579Z,1.10
2017-11-28T01:22:32.367Z,1.10
2017-11-28T01:25:00.193Z,1.17
2017-11-28T01:27:27.909Z,1.15
2017-11-28T01:29:55.557Z,1.10
2017-11-28T01:32:24.046Z,1.00
2017-11-28T01:34:51.869Z,1.20
2017-11-28T01:37:19.524Z,1.10
2017-11-28T01:39:47.157Z,1.15
2017-11-28T01:42:14.830Z,1.10
2017-11-28T01:44:42.483Z,1.20
2017-11-28T01:47:11.290Z,1.20
2017-11-28T01:49:38.950Z,1.37
2017-11-28T01:52:07.356Z,1.20
2017-11-28T01:54:36.718Z,1.00
2017-11-28T01:57:04.350Z,1.37
2017-11-28T01:59:32.002Z,1.30
2017-11-28T02:01:59.834Z,1.23
2017-11-28T02:04:28.371Z,1.20
2017-11-28T02:06:56.124Z,1.27
2017-11-28T02:09:27.259Z,1.10
2017-11-28T02:11:54.989Z,1.10
2017-11-28T02:14:22.826Z,1.00
2017-11-28T02:16:50.507Z,1.20
2017-11-28T02:19:18.137Z,1.25
2017-11-28T02:21:46.262Z,1.15
2017-11-28T02:24:13.967Z,1.30
2017-11-28T02:26:42.441Z,1.10
2017-11-28T02:29:10.173Z,1.20
2017-11-28T02:31:37.853Z,1.30
2017-11-28T02:34:05.511Z,1.00
2017-11-28T02:36:34.235Z,1.30
2017-11-28T02:39:04.190Z,1.20
2017-11-28T02:41:31.908Z,1.10
2017-11-28T02:44:06.064Z,1.10
2017-11-28T02:46:33.709Z,1.00
2017-11-28T02:49:12.043Z,1.20
2017-11-28T02:51:40.467Z,1.40
2017-11-28T02:54:08.189Z,1.30
2017-11-28T02:56:35.868Z,1.20
2017-11-28T02:59:04.476Z,1.30
2017-11-28T09:00:26.845Z,2.25
2017-11-28T09:02:54.883Z,1.70
2017-11-28T09:05:24.038Z,1.65
2017-11-28T09:07:51.632Z,1.58
2017-11-28T09:10:19.237Z,1.70
2017-11-28T09:12:46.818Z,1.80
2017-11-28T09:15:14.413Z,1.95
2017-11-28T09:17:42.008Z,2.00
2017-11-28T09:20:10.370Z,1.70
2017-11-28T09:22:37.985Z,1.92
2017-11-28T09:25:05.626Z,1.70
2017-11-28T09:27:33.961Z,1.80
2017-11-28T09:30:02.474Z,1.65
2017-11-28T09:32:30.067Z,1.70
2017-11-28T09:34:57.688Z,2.00
2017-11-28T09:37:25.297Z,1.60
2017-11-28T09:39:53.600Z,1.77
2017-11-28T09:42:21.193Z,1.80
2017-11-28T09:44:48.782Z,1.95
2017-11-28T09:47:17.449Z,1.90
2017-11-28T09:49:45.011Z,1.62
2017-11-28T09:52:12.599Z,1.67
2017-11-28T09:54:40.136Z,1.70
2017-11-28T09:57:07.719Z,1.83
2017-11-28T09:59:35.316Z,1.62
2017-11-28T10:02:03.656Z,2.15
2017-11-28T10:04:31.299Z,1.70
2017-11-28T10:06:58.876Z,1.70
2017-11-28T10:09:26.463Z,1.62
2017-11-28T10:11:55.697Z,1.62
2017-11-28T10:14:24.117Z,1.70
2017-11-28T10:16:51.706Z,1.70
2017-11-28T10:19:19.315Z,1.90
2017-11-28T10:21:47.693Z,1.90
2017-11-28T10:24:15.254Z,1.90
2017-11-28T10:26:42.863Z,2.47
2017-11-28T10:29:10.443Z,1.90
2017-11-28T10:31:38.042Z,1.60
2017-11-28T10:34:05.586Z,2.05
2017-11-28T10:36:33.171Z,1.80
2017-11-28T10:39:00.753Z,2.12
2017-11-28T10:41:29.067Z,2.00
2017-11-28T10:43:56.637Z,2.12
2017-11-28T10:46:24.288Z,2.37
2017-11-28T10:48:51.897Z,1.70
2017-11-28T10:51:19.477Z,1.87
2017-11-28T10:53:47.109Z,1.60
2017-11-28T10:56:14.675Z,2.15
2017-11-28T10:58:42.294Z,1.85
2017-11-28T11:01:10.622Z,1.60
2017-11-28T11:03:39.273Z,2.00
2017-11-28T11:06:07.610Z,1.98
2017-11-28T11:08:35.199Z,2.25
2017-11-28T11:11:04.459Z,1.70
2017-11-28T11:13:32.052Z,1.73
2017-11-28T11:15:59.649Z,2.00
2017-11-28T11:18:27.998Z,2.10
2017-11-28T11:20:55.620Z,1.60
2017-11-28T11:23:23.422Z,1.87
2017-11-28T11:25:51.034Z,1.75
2017-11-28T11:28:19.350Z,2.05
2017-11-28T11:30:46.928Z,1.73
2017-11-28T11:33:14.522Z,2.15
2017-11-28T11:35:42.122Z,1.80
2017-11-28T11:38:10.475Z,2.20
2017-11-28T11:40:38.044Z,2.15
2017-11-28T11:43:06.410Z,2.10
2017-11-28T11:45:33.940Z,2.17
2017-11-28T11:48:01.619Z,2.35
2017-11-28T11:50:29.185Z,2.10
2017-11-28T11:52:56.770Z,1.75
2017-11-28T11:55:24.377Z,2.00
2017-11-28T11:57:52.041Z,2.25
2017-11-28T12:00:19.632Z,2.30
2017-11-28T12:02:47.261Z,2.30
2017-11-28T12:05:15.607Z,2.10
2017-11-28T12:07:45.286Z,2.20
2017-11-28T12:10:13.773Z,2.47
2017-11-28T12:12:41.381Z,1.90
2017-11-28T12:15:09.000Z,2.15
2017-11-28T12:17:36.586Z,2.22
2017-11-28T12:20:04.163Z,1.87
2017-11-28T12:22:31.754Z,2.40
2017-11-28T12:24:59.330Z,2.05
2017-11-28T12:27:28.684Z,2.35
2017-11-28T12:29:56.316Z,2.10
2017-11-28T12:32:23.910Z,2.15
2017-11-28T12:34:51.474Z,1.95
2017-11-28T12:37:19.177Z,2.20
2017-11-28T12:39:46.788Z,2.30
2017-11-28T12:42:14.390Z,2.30
2017-11-28T12:44:41.983Z,2.22
2017-11-28T12:47:09.577Z,2.17
2017-11-28T12:49:37.164Z,1.85
2017-11-28T12:52:04.738Z,2.12
2017-11-28T12:54:32.355Z,2.50
2017-11-28T12:57:00.747Z,2.05
2017-11-28T12:59:28.383Z,2.15
2017-11-28T13:01:55.961Z,2.25
2017-11-28T13:04:23.558Z,2.33
2017-11-28T13:06:51.180Z,2.45
2017-11-28T13:09:18.798Z,2.12
2017-11-28T13:11:46.385Z,2.12
2017-11-28T13:14:14.005Z,2.30
2017-11-28T13:16:42.330Z,2.17
2017-11-28T13:19:09.966Z,2.43
2017-11-28T13:21:38.315Z,2.12
2017-11-28T13:24:05.877Z,2.35
2017-11-28T13:26:33.501Z,2.30
2017-11-28T13:29:01.059Z,2.33
2017-11-28T13:31:28.657Z,2.12
2017-11-28T13:33:56.241Z,1.90
2017-11-28T13:36:23.801Z,2.30
2017-11-28T13:38:51.401Z,2.50
2017-11-28T13:41:19.750Z,2.30
2017-11-28T13:43:47.351Z,2.20
2017-11-28T13:46:14.954Z,2.35
2017-11-28T13:48:42.546Z,2.65
2017-11-28T13:51:10.472Z,2.30
2017-11-28T13:53:38.084Z,3.05
2017-11-28T13:56:05.743Z,2.45
2017-11-28T13:58:33.379Z,2.45
2017-11-28T14:01:00.960Z,2.50
2017-11-28T14:03:28.605Z,2.55
2017-11-28T14:05:56.181Z,2.90
2017-11-28T14:08:23.807Z,2.80
2017-11-28T14:10:52.221Z,2.90
2017-11-28T14:13:20.316Z,2.90
2017-11-28T14:15:49.461Z,2.87
2017-11-28T14:18:17.134Z,2.78
2017-11-28T14:20:45.459Z,2.85
2017-11-28T14:23:18.627Z,2.45
2017-11-28T14:26:01.117Z,2.47
2017-11-28T14:28:30.634Z,3.90
2017-11-28T14:31:04.535Z,2.90
2017-11-28T14:33:32.124Z,2.80
2017-11-28T14:36:03.190Z,2.25
2017-11-28T14:38:30.811Z,3.00
2017-11-28T14:41:06.840Z,3.00
2017-11-28T14:43:37.465Z,2.80
2017-11-28T14:46:15.144Z,3.33
2017-11-28T14:48:42.824Z,2.40
2017-11-28T14:51:29.549Z,2.50
2017-11-28T14:54:02.724Z,2.45
2017-11-28T14:56:45.271Z,3.17
2017-11-28T14:59:33.509Z,2.90
2017-11-28T15:02:08.992Z,2.78
2017-11-28T15:04:52.425Z,3.42
2017-11-28T15:07:35.883Z,3.92
2017-11-28T15:10:11.731Z,2.97
2017-11-28T15:12:50.041Z,2.60
2017-11-28T15:15:36.526Z,2.62
2017-11-28T15:18:09.911Z,4.00
2017-11-28T15:20:53.331Z,3.50
2017-11-28T15:23:36.635Z,2.80
2017-11-28T15:26:19.140Z,3.85
2017-11-28T15:28:56.719Z,3.22
2017-11-28T15:31:24.358Z,3.22
2017-11-28T15:33:52.065Z,2.90
2017-11-28T15:36:20.065Z,3.62
2017-11-28T15:38:47.653Z,2.97
2017-11-28T15:41:15.323Z,3.10
2017-11-28T15:43:43.093Z,3.20
2017-11-28T15:46:10.793Z,3.33
2017-11-28T15:48:39.185Z,3.45
2017-11-28T15:51:06.782Z,3.35
2017-11-28T15:53:34.706Z,3.20
2017-11-28T15:56:02.330Z,3.55
2017-11-28T15:58:30.064Z,3.05
2017-11-28T16:00:57.728Z,3.17
2017-11-28T16:03:25.394Z,3.05
2017-11-28T16:05:53.013Z,2.90
2017-11-28T16:08:20.647Z,3.03
2017-11-28T16:10:48.471Z,2.80
2017-11-28T16:13:16.936Z,3.08
2017-11-28T16:15:44.572Z,2.97
2017-11-28T16:18:12.206Z,2.75
2017-11-28T16:20:39.808Z,2.87
2017-11-28T16:23:07.708Z,2.55
2017-11-28T16:25:35.267Z,2.58
2017-11-28T16:28:02.831Z,2.78
2017-11-28T16:30:31.926Z,2.95
2017-11-28T16:32:59.589Z,2.45
2017-11-28T16:35:27.225Z,2.60
2017-11-28T16:37:54.806Z,2.67
2017-11-28T16:40:22.395Z,2.58
2017-11-28T16:42:50.560Z,2.90
2017-11-28T16:45:18.122Z,2.50
2017-11-28T16:47:45.699Z,3.00
2017-11-28T16:50:13.292Z,2.45
2017-11-28T16:52:41.616Z,2.50
2017-11-28T16:55:09.242Z,3.22
2017-11-28T16:57:36.907Z,2.67
2017-11-28T17:00:05.322Z,2.60
2017-11-28T17:02:32.904Z,2.78
2017-11-28T17:05:00.472Z,2.60
2017-11-28T17:07:28.078Z,3.95
2017-11-28T17:09:55.693Z,5.40
2017-11-28T17:12:23.329Z,3.45
2017-11-28T17:14:51.697Z,2.60
2017-11-28T17:17:20.070Z,2.70
2017-11-28T17:19:47.836Z,3.33
2017-11-28T17:22:15.416Z,3.00
2017-11-28T17:24:43.036Z,3.20
2017-11-28T17:27:10.649Z,3.10
2017-11-28T17:29:38.253Z,2.90
2017-11-28T17:32:05.846Z,2.92
2017-11-28T17:34:33.489Z,3.45
2017-11-28T17:37:01.744Z,3.62
2017-11-28T17:39:30.082Z,3.20
2017-11-28T17:41:57.671Z,2.90
2017-11-28T17:44:26.012Z,3.28
2017-11-28T17:46:53.622Z,3.00
2017-11-28T17:49:21.981Z,3.10
2017-11-28T17:51:49.573Z,3.17
2017-11-28T17:54:18.026Z,3.15
2017-11-28T17:56:45.634Z,3.20
2017-11-28T17:59:13.207Z,3.12
2017-11-28T18:01:40.793Z,3.20
2017-11-28T18:04:08.379Z,3.40
2017-11-28T18:06:35.965Z,3.50
2017-11-28T18:09:03.563Z,2.85
2017-11-28T18:11:31.912Z,3.60
2017-11-28T18:13:59.512Z,4.10
2017-11-28T18:16:27.830Z,3.58
2017-11-28T18:18:56.430Z,4.20
2017-11-28T18:21:24.005Z,4.18
2017-11-28T18:23:51.610Z,4.32
2017-11-28T18:26:19.987Z,4.15
2017-11-28T18:28:49.302Z,4.32
2017-11-28T18:31:16.865Z,4.65
2017-11-28T18:33:44.466Z,4.05
2017-11-28T18:36:12.051Z,4.25
2017-11-28T18:38:39.617Z,4.03
2017-11-28T18:41:07.181Z,4.28
2017-11-28T18:43:34.729Z,4.45
2017-11-28T18:46:03.298Z,4.18
2017-11-28T18:48:30.842Z,4.43
2017-11-28T18:50:58.445Z,3.50
2017-11-28T18:53:26.028Z,4.18
2017-11-28T18:55:53.574Z,4.35
2017-11-28T18:58:21.177Z,4.03
2017-11-28T19:00:48.734Z,4.03
2017-11-28T19:03:16.302Z,3.28
2017-11-28T19:05:44.690Z,3.70
2017-11-28T19:08:12.274Z,3.92
2017-11-28T19:10:40.599Z,4.53
2017-11-28T19:13:08.200Z,4.32
2017-11-28T19:15:35.791Z,4.70
2017-11-28T19:18:04.125Z,4.10
2017-11-28T19:20:31.700Z,3.65
2017-11-28T19:22:59.290Z,4.50
2017-11-28T19:25:27.634Z,3.47
2017-11-28T19:27:56.268Z,4.00
2017-11-28T19:30:24.647Z,4.40
2017-11-28T19:32:53.002Z,4.10
2017-11-28T19:35:20.595Z,4.30
2017-11-28T19:37:48.996Z,3.58
2017-11-28T19:40:16.632Z,3.78
2017-11-28T19:42:44.206Z,4.43
2017-11-28T19:45:11.812Z,7.15
2017-11-28T19:47:39.394Z,7.37
2017-11-28T19:50:06.984Z,5.20
2017-11-28T19:52:34.547Z,3.87
2017-11-28T19:55:02.158Z,4.60
2017-11-28T19:57:29.776Z,4.85
2017-11-28T19:59:57.361Z,3.70
2017-11-28T20:02:25.722Z,3.70
2017-11-28T20:04:53.301Z,3.75
2017-11-28T20:07:20.859Z,3.80
2017-11-28T20:09:48.490Z,3.75
2017-11-28T20:12:16.065Z,3.72
2017-11-28T20:14:44.658Z,4.05
2017-11-28T20:17:12.260Z,3.45
2017-11-28T20:19:40.651Z,3.20
2017-11-28T20:22:08.253Z,3.33
2017-11-28T20:24:35.841Z,2.92
2017-11-28T20:27:03.442Z,3.15
2017-11-28T20:29:31.816Z,2.62
2017-11-28T20:31:59.421Z,2.60
2017-11-28T20:34:27.042Z,3.08
2017-11-28T20:36:54.643Z,2.47
2017-11-28T20:39:22.320Z,3.05
2017-11-28T20:41:50.904Z,2.92
2017-11-28T20:44:18.489Z,2.47
2017-11-28T20:46:46.089Z,2.45
2017-11-28T20:49:19.215Z,2.83
2017-11-28T20:51:46.826Z,2.50
2017-11-28T20:54:14.789Z,2.70
2017-11-28T20:56:42.381Z,2.97
2017-11-28T20:59:09.960Z,2.60
2017-11-28T21:01:38.315Z,2.42
2017-11-28T21:04:05.903Z,2.60
2017-11-28T21:06:33.507Z,2.80
2017-11-28T21:09:01.075Z,2.87
2017-11-28T21:11:28.677Z,2.83
2017-11-28T21:13:56.317Z,4.53
2017-11-28T21:16:23.926Z,2.20
2017-11-28T21:18:51.479Z,3.85
2017-11-28T21:21:19.111Z,3.90
2017-11-28T21:23:46.674Z,5.32
2017-11-28T21:26:14.291Z,5.40
2017-11-28T21:28:41.987Z,3.08
2017-11-28T21:31:10.317Z,4.05
2017-11-28T21:33:37.907Z,3.80
2017-11-28T21:36:05.514Z,4.30
2017-11-28T21:38:33.260Z,5.35
2017-11-28T21:41:01.731Z,4.35
2017-11-28T21:43:29.954Z,3.90
2017-11-28T21:45:58.015Z,3.72
2017-11-28T21:48:25.749Z,3.47
2017-11-28T21:50:53.370Z,3.58
2017-11-28T21:53:20.977Z,4.30
2017-11-28T21:55:48.599Z,3.70
2017-11-28T21:58:16.269Z,3.80
2017-11-28T22:00:43.856Z,4.10
2017-11-28T22:03:11.468Z,3.85
2017-11-28T22:05:39.862Z,3.55
2017-11-28T22:08:07.529Z,3.40
2017-11-28T22:10:37.381Z,3.70
2017-11-28T22:13:04.929Z,4.25
2017-11-28T22:15:32.527Z,3.78
2017-11-28T22:18:00.125Z,5.47
2017-11-28T22:20:28.678Z,3.65
2017-11-28T22:22:56.345Z,3.90
2017-11-28T22:25:23.998Z,3.10
2017-11-28T22:27:51.645Z,4.00
2017-11-28T22:30:20.027Z,3.83
2017-11-28T22:32:47.599Z,4.00
2017-11-28T22:35:15.290Z,3.60
2017-11-28T22:37:42.921Z,3.62
2017-11-28T22:40:10.577Z,5.10
2017-11-28T22:42:38.173Z,4.87
2017-11-28T22:45:05.766Z,3.87
2017-11-28T22:47:33.426Z,3.87
2017-11-28T22:50:01.066Z,3.45
2017-11-28T22:52:28.754Z,3.70
2017-11-28T22:54:56.465Z,3.50
2017-11-28T22:57:24.873Z,3.75
2017-11-28T22:59:52.540Z,3.40
2017-11-28T23:02:20.165Z,2.60
2017-11-28T23:04:47.775Z,3.20
2017-11-28T23:07:15.375Z,3.35
2017-11-28T23:09:43.033Z,3.50
2017-11-28T23:12:10.642Z,3.20
2017-11-28T23:14:46.744Z,3.40
2017-11-28T23:17:14.349Z,3.35
2017-11-28T23:19:41.944Z,4.70
2017-11-28T23:22:09.533Z,3.95
2017-11-28T23:24:37.115Z,4.05
2017-11-28T23:27:04.689Z,4.05
2017-11-28T23:29:32.254Z,4.35
2017-11-28T23:31:59.856Z,4.70
2017-11-28T23:34:28.157Z,4.32
2017-11-28T23:36:55.731Z,4.53
2017-11-28T23:39:23.327Z,3.90
2017-11-28T23:41:50.883Z,3.65
2017-11-28T23:44:18.490Z,5.12
2017-11-28T23:46:46.036Z,4.50
2017-11-28T23:49:13.654Z,4.37
2017-11-28T23:51:41.248Z,5.05
2017-11-28T23:54:09.816Z,5.53
2017-11-28T23:56:37.376Z,4.75
2017-11-28T23:59:04.968Z,5.00
